sensor_id;sensor_type;location;lat;lon;timestamp;pressure;altitude;pressure_sealevel;temperature
82638;BMP280;72318;36.628;-121.932;2024-01-25T00:00:38;101550.41;;;14.31
82638;BMP280;72318;36.628;-121.932;2024-01-25T00:03:04;101541.31;;;14.50
82638;BMP280;72318;36.628;-121.932;2024-01-25T00:05:31;101539.44;;;14.43
82638;BMP280;72318;36.628;-121.932;2024-01-25T00:07:58;101544.38;;;14.52
82638;BMP280;72318;36.628;-121.932;2024-01-25T00:10:44;101543.59;;;14.44
82638;BMP280;72318;36.628;-121.932;2024-01-25T00:13:13;101551.34;;;14.70
82638;BMP280;72318;36.628;-121.932;2024-01-25T00:15:39;101542.13;;;14.61
82638;BMP280;72318;36.628;-121.932;2024-01-25T00:18:05;101552.03;;;14.57
82638;BMP280;72318;36.628;-121.932;2024-01-25T00:20:31;101554.38;;;14.65
82638;BMP280;72318;36.628;-121.932;2024-01-25T00:22:58;101544.78;;;14.61
82638;BMP280;72318;36.628;-121.932;2024-01-25T00:25:24;101550.91;;;14.54
82638;BMP280;72318;36.628;-121.932;2024-01-25T00:27:50;101559.19;;;14.35
82638;BMP280;72318;36.628;-121.932;2024-01-25T00:30:19;101556.22;;;14.54
82638;BMP280;72318;36.628;-121.932;2024-01-25T00:32:46;101570.69;;;14.50
82638;BMP280;72318;36.628;-121.932;2024-01-25T00:35:12;101563.41;;;14.47
82638;BMP280;72318;36.628;-121.932;2024-01-25T00:37:40;101564.59;;;14.56
82638;BMP280;72318;36.628;-121.932;2024-01-25T00:40:07;101573.72;;;14.48
82638;BMP280;72318;36.628;-121.932;2024-01-25T00:42:40;101583.28;;;14.56
82638;BMP280;72318;36.628;-121.932;2024-01-25T00:45:09;101585.16;;;14.56
82638;BMP280;72318;36.628;-121.932;2024-01-25T00:47:36;101581.41;;;14.60
82638;BMP280;72318;36.628;-121.932;2024-01-25T00:50:03;101596.97;;;14.55
82638;BMP280;72318;36.628;-121.932;2024-01-25T00:52:30;101593.59;;;14.58
82638;BMP280;72318;36.628;-121.932;2024-01-25T00:54:56;101603.44;;;14.50
82638;BMP280;72318;36.628;-121.932;2024-01-25T00:57:23;101591.63;;;14.44
82638;BMP280;72318;36.628;-121.932;2024-01-25T00:59:49;101591.22;;;14.49
82638;BMP280;72318;36.628;-121.932;2024-01-25T01:02:16;101600.75;;;14.40
82638;BMP280;72318;36.628;-121.932;2024-01-25T01:04:42;101600.34;;;14.38
82638;BMP280;72318;36.628;-121.932;2024-01-25T01:07:10;101595.06;;;14.48
82638;BMP280;72318;36.628;-121.932;2024-01-25T01:09:36;101596.56;;;14.49
82638;BMP280;72318;36.628;-121.932;2024-01-25T01:12:03;101592.06;;;14.64
82638;BMP280;72318;36.628;-121.932;2024-01-25T01:14:29;101588.19;;;14.47
82638;BMP280;72318;36.628;-121.932;2024-01-25T01:16:55;101576.41;;;14.52
82638;BMP280;72318;36.628;-121.932;2024-01-25T01:19:21;101584.00;;;14.46
82638;BMP280;72318;36.628;-121.932;2024-01-25T01:21:48;101584.81;;;14.54
82638;BMP280;72318;36.628;-121.932;2024-01-25T01:24:14;101579.88;;;14.59
82638;BMP280;72318;36.628;-121.932;2024-01-25T01:26:40;101566.91;;;14.61
82638;BMP280;72318;36.628;-121.932;2024-01-25T01:29:09;101571.00;;;14.41
82638;BMP280;72318;36.628;-121.932;2024-01-25T01:31:36;101574.09;;;14.47
82638;BMP280;72318;36.628;-121.932;2024-01-25T01:34:02;101568.78;;;14.43
82638;BMP280;72318;36.628;-121.932;2024-01-25T01:36:28;101576.00;;;14.50
82638;BMP280;72318;36.628;-121.932;2024-01-25T01:38:54;101571.81;;;14.45
82638;BMP280;72318;36.628;-121.932;2024-01-25T01:41:21;101585.13;;;14.42
82638;BMP280;72318;36.628;-121.932;2024-01-25T01:43:47;101576.34;;;14.41
82638;BMP280;72318;36.628;-121.932;2024-01-25T01:46:34;101577.81;;;14.32
82638;BMP280;72318;36.628;-121.932;2024-01-25T01:49:02;101582.41;;;14.35
82638;BMP280;72318;36.628;-121.932;2024-01-25T01:51:30;101595.06;;;14.48
82638;BMP280;72318;36.628;-121.932;2024-01-25T01:53:57;101591.59;;;14.41
82638;BMP280;72318;36.628;-121.932;2024-01-25T01:56:27;101597.34;;;14.43
82638;BMP280;72318;36.628;-121.932;2024-01-25T01:59:04;101602.72;;;14.53
82638;BMP280;72318;36.628;-121.932;2024-01-25T02:01:32;101615.25;;;14.46
82638;BMP280;72318;36.628;-121.932;2024-01-25T02:03:58;101601.50;;;14.40
82638;BMP280;72318;36.628;-121.932;2024-01-25T02:06:24;101605.69;;;14.45
82638;BMP280;72318;36.628;-121.932;2024-01-25T02:08:51;101615.59;;;14.41
82638;BMP280;72318;36.628;-121.932;2024-01-25T02:11:19;101609.09;;;14.38
82638;BMP280;72318;36.628;-121.932;2024-01-25T02:13:46;101598.41;;;14.31
82638;BMP280;72318;36.628;-121.932;2024-01-25T02:16:13;101600.34;;;14.38
82638;BMP280;72318;36.628;-121.932;2024-01-25T02:18:41;101610.69;;;14.50
82638;BMP280;72318;36.628;-121.932;2024-01-25T02:21:08;101606.81;;;14.37
82638;BMP280;72318;36.628;-121.932;2024-01-25T02:23:34;101609.88;;;14.39
82638;BMP280;72318;36.628;-121.932;2024-01-25T02:26:00;101608.00;;;14.43
82638;BMP280;72318;36.628;-121.932;2024-01-25T02:28:26;101613.00;;;14.48
82638;BMP280;72318;36.628;-121.932;2024-01-25T02:30:55;101614.50;;;14.45
82638;BMP280;72318;36.628;-121.932;2024-01-25T02:33:22;101604.94;;;14.41
82638;BMP280;72318;36.628;-121.932;2024-01-25T02:35:48;101597.28;;;14.39
82638;BMP280;72318;36.628;-121.932;2024-01-25T02:38:14;101612.06;;;14.20
82638;BMP280;72318;36.628;-121.932;2024-01-25T02:40:40;101613.66;;;14.31
82638;BMP280;72318;36.628;-121.932;2024-01-25T02:43:06;101617.06;;;14.31
82638;BMP280;72318;36.628;-121.932;2024-01-25T02:45:33;101620.53;;;14.39
82638;BMP280;72318;36.628;-121.932;2024-01-25T02:47:59;101625.06;;;14.31
82638;BMP280;72318;36.628;-121.932;2024-01-25T02:50:27;101627.00;;;14.31
82638;BMP280;72318;36.628;-121.932;2024-01-25T02:52:54;101627.34;;;14.33
82638;BMP280;72318;36.628;-121.932;2024-01-25T02:55:20;101629.63;;;14.27
82638;BMP280;72318;36.628;-121.932;2024-01-25T02:57:47;101629.25;;;14.29
82638;BMP280;72318;36.628;-121.932;2024-01-25T03:00:13;101635.38;;;14.33
82638;BMP280;72318;36.628;-121.932;2024-01-25T03:02:39;101636.56;;;14.42
82638;BMP280;72318;36.628;-121.932;2024-01-25T03:05:06;101641.16;;;14.42
82638;BMP280;72318;36.628;-121.932;2024-01-25T03:07:32;101626.69;;;14.46
82638;BMP280;72318;36.628;-121.932;2024-01-25T03:09:59;101637.69;;;14.41
82638;BMP280;72318;36.628;-121.932;2024-01-25T03:12:25;101645.38;;;14.50
82638;BMP280;72318;36.628;-121.932;2024-01-25T03:14:51;101634.69;;;14.50
82638;BMP280;72318;36.628;-121.932;2024-01-25T03:17:26;101642.34;;;14.48
82638;BMP280;72318;36.628;-121.932;2024-01-25T03:19:58;101648.03;;;14.50
82638;BMP280;72318;36.628;-121.932;2024-01-25T03:22:24;101641.81;;;14.25
82638;BMP280;72318;36.628;-121.932;2024-01-25T03:24:50;101655.56;;;14.30
82638;BMP280;72318;36.628;-121.932;2024-01-25T03:27:17;101671.16;;;14.32
82638;BMP280;72318;36.628;-121.932;2024-01-25T03:29:43;101673.19;;;14.45
82638;BMP280;72318;36.628;-121.932;2024-01-25T03:32:10;101669.38;;;14.46
82638;BMP280;72318;36.628;-121.932;2024-01-25T03:34:36;101657.09;;;14.31
82638;BMP280;72318;36.628;-121.932;2024-01-25T03:37:03;101662.09;;;14.40
82638;BMP280;72318;36.628;-121.932;2024-01-25T03:39:29;101649.03;;;14.28
82638;BMP280;72318;36.628;-121.932;2024-01-25T03:41:56;101654.13;;;14.43
82638;BMP280;72318;36.628;-121.932;2024-01-25T03:44:22;101649.47;;;14.30
82638;BMP280;72318;36.628;-121.932;2024-01-25T03:46:48;101648.69;;;14.29
82638;BMP280;72318;36.628;-121.932;2024-01-25T03:49:15;101657.53;;;14.44
82638;BMP280;72318;36.628;-121.932;2024-01-25T03:51:41;101655.56;;;14.30
82638;BMP280;72318;36.628;-121.932;2024-01-25T03:54:07;101658.28;;;14.41
82638;BMP280;72318;36.628;-121.932;2024-01-25T03:56:33;101667.88;;;14.49
82638;BMP280;72318;36.628;-121.932;2024-01-25T03:58:59;101678.38;;;14.25
82638;BMP280;72318;36.628;-121.932;2024-01-25T04:01:25;101669.31;;;14.39
82638;BMP280;72318;36.628;-121.932;2024-01-25T04:03:52;101669.53;;;14.17
82638;BMP280;72318;36.628;-121.932;2024-01-25T04:06:18;101662.38;;;14.25
82638;BMP280;72318;36.628;-121.932;2024-01-25T04:08:45;101663.81;;;14.15
82638;BMP280;72318;36.628;-121.932;2024-01-25T04:11:11;101674.84;;;14.10
82638;BMP280;72318;36.628;-121.932;2024-01-25T04:13:40;101675.28;;;14.19
82638;BMP280;72318;36.628;-121.932;2024-01-25T04:16:06;101677.97;;;14.26
82638;BMP280;72318;36.628;-121.932;2024-01-25T04:18:33;101687.56;;;14.34
82638;BMP280;72318;36.628;-121.932;2024-01-25T04:21:00;101682.88;;;14.21
82638;BMP280;72318;36.628;-121.932;2024-01-25T04:23:26;101694.31;;;14.14
82638;BMP280;72318;36.628;-121.932;2024-01-25T04:25:52;101693.97;;;14.26
82638;BMP280;72318;36.628;-121.932;2024-01-25T04:28:21;101694.34;;;14.21
82638;BMP280;72318;36.628;-121.932;2024-01-25T04:30:47;101700.84;;;14.27
82638;BMP280;72318;36.628;-121.932;2024-01-25T04:33:13;101711.91;;;14.26
82638;BMP280;72318;36.628;-121.932;2024-01-25T04:35:40;101719.09;;;14.22
82638;BMP280;72318;36.628;-121.932;2024-01-25T04:38:06;101714.53;;;14.19
82638;BMP280;72318;36.628;-121.932;2024-01-25T04:40:32;101736.34;;;14.31
82638;BMP280;72318;36.628;-121.932;2024-01-25T04:42:58;101746.25;;;14.34
82638;BMP280;72318;36.628;-121.932;2024-01-25T04:45:24;101754.66;;;14.36
82638;BMP280;72318;36.628;-121.932;2024-01-25T04:47:51;101763.72;;;14.25
82638;BMP280;72318;36.628;-121.932;2024-01-25T04:50:18;101755.03;;;14.31
82638;BMP280;72318;36.628;-121.932;2024-01-25T04:52:44;101752.84;;;14.43
82638;BMP280;72318;36.628;-121.932;2024-01-25T04:55:10;101744.41;;;14.41
82638;BMP280;72318;36.628;-121.932;2024-01-25T04:57:36;101733.41;;;14.46
82638;BMP280;72318;36.628;-121.932;2024-01-25T05:00:03;101730.22;;;14.30
82638;BMP280;72318;36.628;-121.932;2024-01-25T05:02:30;101742.31;;;14.18
82638;BMP280;72318;36.628;-121.932;2024-01-25T05:04:56;101754.16;;;14.24
82638;BMP280;72318;36.628;-121.932;2024-01-25T05:07:22;101756.00;;;14.16
82638;BMP280;72318;36.628;-121.932;2024-01-25T05:09:49;101753.84;;;14.32
82638;BMP280;72318;36.628;-121.932;2024-01-25T05:12:15;101761.06;;;14.28
82638;BMP280;72318;36.628;-121.932;2024-01-25T05:14:41;101775.84;;;14.19
82638;BMP280;72318;36.628;-121.932;2024-01-25T05:17:07;101772.75;;;14.13
82638;BMP280;72318;36.628;-121.932;2024-01-25T05:19:34;101763.66;;;14.18
82638;BMP280;72318;36.628;-121.932;2024-01-25T05:22:00;101761.47;;;14.30
82638;BMP280;72318;36.628;-121.932;2024-01-25T05:24:33;101754.44;;;14.12
82638;BMP280;72318;36.628;-121.932;2024-01-25T05:26:59;101768.22;;;14.21
82638;BMP280;72318;36.628;-121.932;2024-01-25T05:29:26;101767.44;;;14.17
82638;BMP280;72318;36.628;-121.932;2024-01-25T05:31:52;101768.56;;;14.16
82638;BMP280;72318;36.628;-121.932;2024-01-25T05:34:18;101755.25;;;14.16
82638;BMP280;72318;36.628;-121.932;2024-01-25T05:36:44;101758.25;;;14.11
82638;BMP280;72318;36.628;-121.932;2024-01-25T05:39:11;101761.09;;;13.92
82638;BMP280;72318;36.628;-121.932;2024-01-25T05:41:38;101751.38;;;14.10
82638;BMP280;72318;36.628;-121.932;2024-01-25T05:44:05;101768.81;;;14.04
82638;BMP280;72318;36.628;-121.932;2024-01-25T05:46:31;101772.31;;;14.08
82638;BMP280;72318;36.628;-121.932;2024-01-25T05:48:57;101769.19;;;13.99
82638;BMP280;72318;36.628;-121.932;2024-01-25T05:51:24;101768.03;;;14.00
82638;BMP280;72318;36.628;-121.932;2024-01-25T05:53:50;101767.19;;;13.89
82638;BMP280;72318;36.628;-121.932;2024-01-25T05:56:16;101774.53;;;13.66
82638;BMP280;72318;36.628;-121.932;2024-01-25T05:58:43;101789.06;;;13.72
82638;BMP280;72318;36.628;-121.932;2024-01-25T06:01:09;101780.75;;;13.77
82638;BMP280;72318;36.628;-121.932;2024-01-25T06:03:44;101796.13;;;13.90
82638;BMP280;72318;36.628;-121.932;2024-01-25T06:06:28;101791.16;;;13.89
82638;BMP280;72318;36.628;-121.932;2024-01-25T06:08:54;101800.38;;;13.98
82638;BMP280;72318;36.628;-121.932;2024-01-25T06:11:21;101800.25;;;13.84
82638;BMP280;72318;36.628;-121.932;2024-01-25T06:13:47;101804.56;;;13.96
82638;BMP280;72318;36.628;-121.932;2024-01-25T06:16:13;101798.06;;;13.93
82638;BMP280;72318;36.628;-121.932;2024-01-25T06:18:39;101799.38;;;13.77
82638;BMP280;72318;36.628;-121.932;2024-01-25T06:21:06;101806.97;;;13.75
82638;BMP280;72318;36.628;-121.932;2024-01-25T06:23:32;101813.19;;;13.86
82638;BMP280;72318;36.628;-121.932;2024-01-25T06:25:58;101820.75;;;13.80
82638;BMP280;72318;36.628;-121.932;2024-01-25T06:28:24;101815.56;;;13.61
82638;BMP280;72318;36.628;-121.932;2024-01-25T06:30:51;101810.09;;;13.47
82638;BMP280;72318;36.628;-121.932;2024-01-25T06:33:17;101823.00;;;13.49
82638;BMP280;72318;36.628;-121.932;2024-01-25T06:35:44;101813.31;;;13.63
82638;BMP280;72318;36.628;-121.932;2024-01-25T06:38:10;101818.06;;;13.47
82638;BMP280;72318;36.628;-121.932;2024-01-25T06:40:36;101813.81;;;13.43
82638;BMP280;72318;36.628;-121.932;2024-01-25T06:43:02;101824.09;;;13.41
82638;BMP280;72318;36.628;-121.932;2024-01-25T06:45:29;101829.41;;;13.44
82638;BMP280;72318;36.628;-121.932;2024-01-25T06:47:55;101819.25;;;13.50
82638;BMP280;72318;36.628;-121.932;2024-01-25T06:50:22;101821.88;;;13.46
82638;BMP280;72318;36.628;-121.932;2024-01-25T06:52:48;101823.44;;;13.54
82638;BMP280;72318;36.628;-121.932;2024-01-25T06:55:14;101818.97;;;13.58
82638;BMP280;72318;36.628;-121.932;2024-01-25T06:57:40;101815.88;;;13.53
82638;BMP280;72318;36.628;-121.932;2024-01-25T07:00:07;101828.41;;;13.52
82638;BMP280;72318;36.628;-121.932;2024-01-25T07:02:33;101832.66;;;13.60
82638;BMP280;72318;36.628;-121.932;2024-01-25T07:05:00;101821.66;;;13.62
82638;BMP280;72318;36.628;-121.932;2024-01-25T07:07:27;101826.63;;;13.63
82638;BMP280;72318;36.628;-121.932;2024-01-25T07:09:53;101831.63;;;13.65
82638;BMP280;72318;36.628;-121.932;2024-01-25T07:12:19;101835.97;;;13.50
82638;BMP280;72318;36.628;-121.932;2024-01-25T07:14:45;101837.56;;;13.55
82638;BMP280;72318;36.628;-121.932;2024-01-25T07:17:12;101838.50;;;13.69
82638;BMP280;72318;36.628;-121.932;2024-01-25T07:19:38;101844.59;;;13.66
82638;BMP280;72318;36.628;-121.932;2024-01-25T07:22:04;101842.81;;;13.77
82638;BMP280;72318;36.628;-121.932;2024-01-25T07:24:31;101842.38;;;13.72
82638;BMP280;72318;36.628;-121.932;2024-01-25T07:26:57;101837.72;;;13.65
82638;BMP280;72318;36.628;-121.932;2024-01-25T07:29:23;101837.09;;;13.79
82638;BMP280;72318;36.628;-121.932;2024-01-25T07:31:50;101841.63;;;13.75
82638;BMP280;72318;36.628;-121.932;2024-01-25T07:34:16;101840.16;;;13.77
82638;BMP280;72318;36.628;-121.932;2024-01-25T07:36:42;101835.78;;;13.95
82638;BMP280;72318;36.628;-121.932;2024-01-25T07:39:09;101842.16;;;13.87
82638;BMP280;72318;36.628;-121.932;2024-01-25T07:41:37;101832.28;;;13.91
82638;BMP280;72318;36.628;-121.932;2024-01-25T07:44:04;101835.69;;;13.88
82638;BMP280;72318;36.628;-121.932;2024-01-25T07:46:31;101831.50;;;13.87
82638;BMP280;72318;36.628;-121.932;2024-01-25T07:48:57;101826.16;;;13.87
82638;BMP280;72318;36.628;-121.932;2024-01-25T07:51:23;101825.72;;;13.82
82638;BMP280;72318;36.628;-121.932;2024-01-25T07:53:53;101826.41;;;13.75
82638;BMP280;72318;36.628;-121.932;2024-01-25T07:56:20;101814.97;;;13.75
82638;BMP280;72318;36.628;-121.932;2024-01-25T07:58:48;101823.03;;;13.78
82638;BMP280;72318;36.628;-121.932;2024-01-25T08:01:18;101817.97;;;13.70
82638;BMP280;72318;36.628;-121.932;2024-01-25T08:03:45;101804.75;;;13.80
82638;BMP280;72318;36.628;-121.932;2024-01-25T08:06:11;101818.50;;;13.86
82638;BMP280;72318;36.628;-121.932;2024-01-25T08:08:37;101815.91;;;13.89
82638;BMP280;72318;36.628;-121.932;2024-01-25T08:11:04;101812.13;;;13.90
82638;BMP280;72318;36.628;-121.932;2024-01-25T08:13:31;101810.97;;;13.91
82638;BMP280;72318;36.628;-121.932;2024-01-25T08:15:57;101802.97;;;13.88
82638;BMP280;72318;36.628;-121.932;2024-01-25T08:18:26;101796.50;;;13.89
82638;BMP280;72318;36.628;-121.932;2024-01-25T08:20:55;101801.94;;;14.03
82638;BMP280;72318;36.628;-121.932;2024-01-25T08:23:22;101803.44;;;14.00
82638;BMP280;72318;36.628;-121.932;2024-01-25T08:25:48;101792.00;;;13.96
82638;BMP280;72318;36.628;-121.932;2024-01-25T08:28:14;101778.19;;;13.87
82638;BMP280;72318;36.628;-121.932;2024-01-25T08:30:41;101776.78;;;14.00
82638;BMP280;72318;36.628;-121.932;2024-01-25T08:33:07;101780.28;;;14.04
82638;BMP280;72318;36.628;-121.932;2024-01-25T08:35:34;101792.06;;;14.03
82638;BMP280;72318;36.628;-121.932;2024-01-25T08:38:00;101796.19;;;13.97
82638;BMP280;72318;36.628;-121.932;2024-01-25T08:40:26;101786.34;;;14.01
82638;BMP280;72318;36.628;-121.932;2024-01-25T08:42:52;101795.88;;;14.02
82638;BMP280;72318;36.628;-121.932;2024-01-25T08:45:19;101801.88;;;13.96
82638;BMP280;72318;36.628;-121.932;2024-01-25T08:47:45;101804.94;;;13.94
82638;BMP280;72318;36.628;-121.932;2024-01-25T08:50:12;101799.16;;;13.89
82638;BMP280;72318;36.628;-121.932;2024-01-25T08:52:38;101798.03;;;13.90
82638;BMP280;72318;36.628;-121.932;2024-01-25T08:55:07;101791.50;;;13.87
82638;BMP280;72318;36.628;-121.932;2024-01-25T08:57:33;101788.84;;;13.87
82638;BMP280;72318;36.628;-121.932;2024-01-25T08:59:59;101787.75;;;13.92
82638;BMP280;72318;36.628;-121.932;2024-01-25T09:02:26;101791.75;;;14.08
82638;BMP280;72318;36.628;-121.932;2024-01-25T09:04:55;101793.75;;;14.18
82638;BMP280;72318;36.628;-121.932;2024-01-25T09:07:22;101789.75;;;14.41
82638;BMP280;72318;36.628;-121.932;2024-01-25T09:09:48;101793.94;;;14.39
82638;BMP280;72318;36.628;-121.932;2024-01-25T09:12:15;101799.69;;;14.01
82638;BMP280;72318;36.628;-121.932;2024-01-25T09:14:42;101799.06;;;14.58
82638;BMP280;72318;36.628;-121.932;2024-01-25T09:17:09;101793.88;;;14.32
82638;BMP280;72318;36.628;-121.932;2024-01-25T09:19:38;101795.09;;;14.41
82638;BMP280;72318;36.628;-121.932;2024-01-25T09:22:04;101787.47;;;14.40
82638;BMP280;72318;36.628;-121.932;2024-01-25T09:24:31;101796.66;;;14.46
82638;BMP280;72318;36.628;-121.932;2024-01-25T09:26:57;101794.53;;;14.65
82638;BMP280;72318;36.628;-121.932;2024-01-25T09:29:25;101795.41;;;14.83
82638;BMP280;72318;36.628;-121.932;2024-01-25T09:31:51;101786.41;;;14.55
82638;BMP280;72318;36.628;-121.932;2024-01-25T09:34:17;101792.97;;;14.61
82638;BMP280;72318;36.628;-121.932;2024-01-25T09:36:44;101798.47;;;14.82
82638;BMP280;72318;36.628;-121.932;2024-01-25T09:39:11;101791.88;;;14.65
82638;BMP280;72318;36.628;-121.932;2024-01-25T09:41:37;101800.22;;;14.64
82638;BMP280;72318;36.628;-121.932;2024-01-25T09:44:03;101805.94;;;14.62
82638;BMP280;72318;36.628;-121.932;2024-01-25T09:46:30;101800.81;;;14.90
82638;BMP280;72318;36.628;-121.932;2024-01-25T09:48:57;101812.47;;;14.72
82638;BMP280;72318;36.628;-121.932;2024-01-25T09:51:23;101812.03;;;14.59
82638;BMP280;72318;36.628;-121.932;2024-01-25T09:53:51;101824.09;;;14.93
82638;BMP280;72318;36.628;-121.932;2024-01-25T09:56:20;101822.72;;;14.63
82638;BMP280;72318;36.628;-121.932;2024-01-25T09:58:47;101828.91;;;14.74
82638;BMP280;72318;36.628;-121.932;2024-01-25T10:01:15;101833.75;;;14.18
82638;BMP280;72318;36.628;-121.932;2024-01-25T10:03:47;101830.94;;;14.04
82638;BMP280;72318;36.628;-121.932;2024-01-25T10:06:15;101835.81;;;13.99
82638;BMP280;72318;36.628;-121.932;2024-01-25T10:08:42;101836.59;;;14.03
82638;BMP280;72318;36.628;-121.932;2024-01-25T10:11:09;101845.31;;;13.96
82638;BMP280;72318;36.628;-121.932;2024-01-25T10:13:44;101836.03;;;13.87
82638;BMP280;72318;36.628;-121.932;2024-01-25T10:16:14;101843.38;;;13.93
82638;BMP280;72318;36.628;-121.932;2024-01-25T10:18:42;101848.69;;;13.90
82638;BMP280;72318;36.628;-121.932;2024-01-25T10:21:12;101855.97;;;14.29
82638;BMP280;72318;36.628;-121.932;2024-01-25T10:23:39;101852.94;;;13.98
82638;BMP280;72318;36.628;-121.932;2024-01-25T10:26:10;101860.00;;;14.16
82638;BMP280;72318;36.628;-121.932;2024-01-25T10:28:36;101859.00;;;13.95
82638;BMP280;72318;36.628;-121.932;2024-01-25T10:31:03;101871.13;;;13.89
82638;BMP280;72318;36.628;-121.932;2024-01-25T10:33:33;101876.53;;;13.96
82638;BMP280;72318;36.628;-121.932;2024-01-25T10:36:01;101873.50;;;13.97
82638;BMP280;72318;36.628;-121.932;2024-01-25T10:38:31;101878.03;;;13.93
82638;BMP280;72318;36.628;-121.932;2024-01-25T10:41:00;101873.69;;;13.82
82638;BMP280;72318;36.628;-121.932;2024-01-25T10:43:31;101885.84;;;13.79
82638;BMP280;72318;36.628;-121.932;2024-01-25T10:45:58;101880.03;;;13.70
82638;BMP280;72318;36.628;-121.932;2024-01-25T10:48:28;101884.47;;;13.63
82638;BMP280;72318;36.628;-121.932;2024-01-25T10:50:57;101889.81;;;13.63
82638;BMP280;72318;36.628;-121.932;2024-01-25T10:53:31;101880.97;;;13.55
82638;BMP280;72318;36.628;-121.932;2024-01-25T10:55:58;101876.16;;;13.64
82638;BMP280;72318;36.628;-121.932;2024-01-25T10:58:24;101878.38;;;13.62
82638;BMP280;72318;36.628;-121.932;2024-01-25T11:00:56;101867.25;;;13.83
82638;BMP280;72318;36.628;-121.932;2024-01-25T11:03:30;101880.13;;;13.51
82638;BMP280;72318;36.628;-121.932;2024-01-25T11:06:12;101881.72;;;13.30
82638;BMP280;72318;36.628;-121.932;2024-01-25T11:08:39;101892.53;;;13.40
82638;BMP280;72318;36.628;-121.932;2024-01-25T11:11:13;101885.91;;;13.28
82638;BMP280;72318;36.628;-121.932;2024-01-25T11:13:43;101890.78;;;13.26
82638;BMP280;72318;36.628;-121.932;2024-01-25T11:16:13;101900.31;;;13.27
82638;BMP280;72318;36.628;-121.932;2024-01-25T11:18:54;101893.34;;;13.19
82638;BMP280;72318;36.628;-121.932;2024-01-25T11:24:11;101898.50;;;13.08
82638;BMP280;72318;36.628;-121.932;2024-01-25T11:26:38;101885.06;;;13.01
82638;BMP280;72318;36.628;-121.932;2024-01-25T11:29:04;101888.50;;;12.79
82638;BMP280;72318;36.628;-121.932;2024-01-25T11:31:31;101894.31;;;12.85
82638;BMP280;72318;36.628;-121.932;2024-01-25T11:33:58;101898.50;;;12.63
82638;BMP280;72318;36.628;-121.932;2024-01-25T11:36:25;101912.53;;;12.83
82638;BMP280;72318;36.628;-121.932;2024-01-25T11:38:52;101907.41;;;12.74
82638;BMP280;72318;36.628;-121.932;2024-01-25T11:41:19;101907.63;;;12.66
82638;BMP280;72318;36.628;-121.932;2024-01-25T11:43:48;101902.19;;;12.78
82638;BMP280;72318;36.628;-121.932;2024-01-25T11:46:15;101905.66;;;12.82
82638;BMP280;72318;36.628;-121.932;2024-01-25T11:48:41;101910.31;;;12.66
82638;BMP280;72318;36.628;-121.932;2024-01-25T11:51:10;101900.53;;;12.51
82638;BMP280;72318;36.628;-121.932;2024-01-25T11:53:37;101912.78;;;12.36
82638;BMP280;72318;36.628;-121.932;2024-01-25T11:56:15;101915.59;;;12.43
82638;BMP280;72318;36.628;-121.932;2024-01-25T11:58:43;101917.69;;;12.34
82638;BMP280;72318;36.628;-121.932;2024-01-25T12:01:11;101908.41;;;12.44
82638;BMP280;72318;36.628;-121.932;2024-01-25T12:03:38;101912.16;;;12.43
82638;BMP280;72318;36.628;-121.932;2024-01-25T12:06:05;101921.19;;;12.38
82638;BMP280;72318;36.628;-121.932;2024-01-25T12:08:32;101915.25;;;12.45
82638;BMP280;72318;36.628;-121.932;2024-01-25T12:11:06;101910.56;;;12.38
82638;BMP280;72318;36.628;-121.932;2024-01-25T12:13:35;101906.91;;;12.27
82638;BMP280;72318;36.628;-121.932;2024-01-25T12:16:02;101903.97;;;12.32
82638;BMP280;72318;36.628;-121.932;2024-01-25T12:18:30;101906.22;;;12.30
82638;BMP280;72318;36.628;-121.932;2024-01-25T12:21:02;101905.84;;;12.32
82638;BMP280;72318;36.628;-121.932;2024-01-25T12:23:36;101905.94;;;12.17
82638;BMP280;72318;36.628;-121.932;2024-01-25T12:26:07;101905.75;;;12.47
82638;BMP280;72318;36.628;-121.932;2024-01-25T12:28:34;101906.69;;;12.55
82638;BMP280;72318;36.628;-121.932;2024-01-25T12:31:04;101907.44;;;12.55
82638;BMP280;72318;36.628;-121.932;2024-01-25T12:33:32;101906.22;;;12.49
82638;BMP280;72318;36.628;-121.932;2024-01-25T12:35:59;101911.81;;;12.44
82638;BMP280;72318;36.628;-121.932;2024-01-25T12:38:26;101906.56;;;12.48
82638;BMP280;72318;36.628;-121.932;2024-01-25T12:40:53;101916.41;;;12.47
82638;BMP280;72318;36.628;-121.932;2024-01-25T12:43:19;101915.47;;;12.59
82638;BMP280;72318;36.628;-121.932;2024-01-25T12:45:49;101916.28;;;12.40
82638;BMP280;72318;36.628;-121.932;2024-01-25T12:48:16;101912.19;;;12.46
82638;BMP280;72318;36.628;-121.932;2024-01-25T12:50:43;101916.34;;;12.25
82638;BMP280;72318;36.628;-121.932;2024-01-25T12:53:13;101916.91;;;12.15
82638;BMP280;72318;36.628;-121.932;2024-01-25T12:55:40;101919.06;;;12.28
82638;BMP280;72318;36.628;-121.932;2024-01-25T12:58:06;101917.09;;;12.63
82638;BMP280;72318;36.628;-121.932;2024-01-25T13:00:32;101932.22;;;12.59
82638;BMP280;72318;36.628;-121.932;2024-01-25T13:02:59;101931.72;;;12.73
82638;BMP280;72318;36.628;-121.932;2024-01-25T13:05:31;101928.69;;;12.74
82638;BMP280;72318;36.628;-121.932;2024-01-25T13:08:01;101927.25;;;12.77
82638;BMP280;72318;36.628;-121.932;2024-01-25T13:10:28;101939.50;;;12.62
82638;BMP280;72318;36.628;-121.932;2024-01-25T13:12:54;101928.88;;;12.43
82638;BMP280;72318;36.628;-121.932;2024-01-25T13:15:21;101934.84;;;12.56
82638;BMP280;72318;36.628;-121.932;2024-01-25T13:17:47;101936.19;;;12.69
82638;BMP280;72318;36.628;-121.932;2024-01-25T13:20:13;101943.84;;;12.70
82638;BMP280;72318;36.628;-121.932;2024-01-25T13:22:39;101938.06;;;12.65
82638;BMP280;72318;36.628;-121.932;2024-01-25T13:25:06;101946.56;;;12.74